createdAt,value
2022-08-18T00:00:00.689Z,14.20
2022-08-18T00:01:00.354Z,14.20
2022-08-18T00:02:02.132Z,14.20
2022-08-18T00:03:08.961Z,14.20
2022-08-18T00:04:03.115Z,14.20
2022-08-18T00:05:00.349Z,14.20
2022-08-18T00:06:00.294Z,14.20
2022-08-18T00:07:00.359Z,14.20
2022-08-18T00:08:00.396Z,21.20
2022-08-18T00:09:02.052Z,21.20
2022-08-18T00:10:00.954Z,21.20
2022-08-18T00:11:00.441Z,21.20
2022-08-18T00:12:01.696Z,21.20
2022-08-18T00:13:01.424Z,21.20
2022-08-18T00:14:00.349Z,21.20
2022-08-18T00:15:00.851Z,21.20
2022-08-18T00:16:00.321Z,21.20
2022-08-18T00:17:00.465Z,21.20
2022-08-18T00:18:00.283Z,21.20
2022-08-18T00:19:00.300Z,21.20
2022-08-18T00:20:00.743Z,21.20
2022-08-18T00:21:00.297Z,21.20
2022-08-18T00:22:00.275Z,21.20
2022-08-18T00:23:00.281Z,21.20
2022-08-18T00:24:00.402Z,21.20
2022-08-18T00:25:00.602Z,21.20
2022-08-18T00:26:00.400Z,21.20
2022-08-18T00:27:00.343Z,21.20
2022-08-18T00:28:00.449Z,21.20
2022-08-18T00:29:00.378Z,21.20
2022-08-18T00:30:01.255Z,21.20
2022-08-18T00:31:00.288Z,21.20
2022-08-18T00:32:10.097Z,21.20
2022-08-18T00:33:00.294Z,21.20
2022-08-18T00:34:00.353Z,21.20
2022-08-18T00:35:04.904Z,21.20
2022-08-18T00:36:00.399Z,21.20
2022-08-18T00:37:00.310Z,21.20
2022-08-18T00:38:01.175Z,22.30
2022-08-18T00:39:00.673Z,22.30
2022-08-18T00:40:00.406Z,22.30
2022-08-18T00:41:00.937Z,22.30
2022-08-18T00:42:10.215Z,22.30
2022-08-18T00:43:01.129Z,22.30
2022-08-18T00:44:00.590Z,22.30
2022-08-18T00:45:01.628Z,22.30
2022-08-18T00:46:00.314Z,22.30
2022-08-18T00:47:00.272Z,22.30
2022-08-18T00:48:00.300Z,22.30
2022-08-18T00:49:00.644Z,22.30
2022-08-18T00:50:00.346Z,22.30
2022-08-18T00:51:03.047Z,22.30
2022-08-18T00:52:00.688Z,22.30
2022-08-18T00:53:04.479Z,22.30
2022-08-18T00:54:05.689Z,22.30
2022-08-18T00:55:00.983Z,22.30
2022-08-18T00:56:04.270Z,22.30
2022-08-18T00:57:02.512Z,22.30
2022-08-18T00:58:05.985Z,22.30
2022-08-18T00:59:05.673Z,22.30
2022-08-18T01:00:03.632Z,22.30
2022-08-18T01:01:02.208Z,22.30
2022-08-18T01:02:01.780Z,22.30
2022-08-18T01:03:02.773Z,22.30
2022-08-18T01:04:05.108Z,22.30
2022-08-18T01:05:10.217Z,22.30
2022-08-18T01:06:05.846Z,22.30
2022-08-18T01:07:04.540Z,22.30
2022-08-18T01:08:00.709Z,23.40
2022-08-18T01:09:00.371Z,23.40
2022-08-18T01:10:00.288Z,23.40
2022-08-18T01:11:00.821Z,23.40
2022-08-18T01:12:00.323Z,23.40
2022-08-18T01:13:00.289Z,23.40
2022-08-18T01:14:00.337Z,23.40
2022-08-18T01:15:00.763Z,23.40
2022-08-18T01:16:00.897Z,23.40
2022-08-18T01:17:00.341Z,23.40
2022-08-18T01:18:02.671Z,23.40
2022-08-18T01:19:00.399Z,23.40
2022-08-18T01:20:00.477Z,23.40
2022-08-18T01:21:07.619Z,23.40
2022-08-18T01:22:03.777Z,23.40
2022-08-18T01:23:00.258Z,23.40
2022-08-18T01:24:02.767Z,23.40
2022-08-18T01:25:00.993Z,23.40
2022-08-18T01:26:00.475Z,23.40
2022-08-18T01:27:00.266Z,23.40
2022-08-18T01:28:00.944Z,23.40
2022-08-18T01:29:04.357Z,23.40
2022-08-18T01:30:04.319Z,23.40
2022-08-18T01:31:00.752Z,23.40
2022-08-18T01:32:00.315Z,23.40
2022-08-18T01:33:00.285Z,23.40
2022-08-18T01:34:00.305Z,23.40
2022-08-18T01:35:00.337Z,23.40
2022-08-18T01:36:08.781Z,23.40
2022-08-18T01:37:00.343Z,23.40
2022-08-18T01:38:00.323Z,19.50
2022-08-18T01:39:00.282Z,19.50
2022-08-18T01:41:24.961Z,19.50
2022-08-18T01:41:26.908Z,19.50
2022-08-18T01:42:00.454Z,19.50
2022-08-18T01:43:00.340Z,19.50
2022-08-18T01:44:01.168Z,19.50
2022-08-18T01:45:00.851Z,19.50
2022-08-18T01:46:00.578Z,19.50
2022-08-18T01:47:00.309Z,19.50
2022-08-18T01:48:00.778Z,19.50
2022-08-18T01:49:00.812Z,19.50
2022-08-18T01:50:00.338Z,19.50
2022-08-18T01:51:02.386Z,19.50
2022-08-18T01:52:00.277Z,19.50
2022-08-18T01:53:00.646Z,19.50
2022-08-18T01:54:00.485Z,19.50
2022-08-18T01:55:00.719Z,19.50
2022-08-18T01:56:00.887Z,19.50
2022-08-18T01:57:00.699Z,19.50
2022-08-18T01:58:00.324Z,19.50
2022-08-18T01:59:00.306Z,19.50
2022-08-18T02:00:00.357Z,19.50
2022-08-18T02:01:00.539Z,19.50
2022-08-18T02:02:00.370Z,19.50
2022-08-18T02:03:02.556Z,19.50
2022-08-18T02:04:31.032Z,19.50
2022-08-18T02:05:04.077Z,19.50
2022-08-18T02:06:02.004Z,19.50
2022-08-18T02:07:00.486Z,19.50
2022-08-18T02:08:00.270Z,19.70
2022-08-18T02:09:00.288Z,19.70
2022-08-18T02:10:00.282Z,19.70
2022-08-18T02:11:00.485Z,19.70
2022-08-18T02:12:00.345Z,19.70
2022-08-18T02:13:00.294Z,19.70
2022-08-18T02:14:00.387Z,19.70
2022-08-18T02:15:00.309Z,19.70
2022-08-18T02:16:00.433Z,19.70
2022-08-18T02:17:02.647Z,19.70
2022-08-18T02:18:00.337Z,19.70
2022-08-18T02:19:00.295Z,19.70
2022-08-18T02:20:00.347Z,19.70
2022-08-18T02:21:10.507Z,19.70
2022-08-18T02:22:00.574Z,19.70
2022-08-18T02:23:00.775Z,19.70
2022-08-18T02:24:00.364Z,19.70
2022-08-18T02:25:00.349Z,19.70
2022-08-18T02:26:03.488Z,19.70
2022-08-18T02:27:00.374Z,19.70
2022-08-18T02:28:00.264Z,19.70
2022-08-18T02:29:00.405Z,19.70
2022-08-18T02:30:01.116Z,19.70
2022-08-18T02:31:11.355Z,19.70
2022-08-18T02:32:00.285Z,19.70
2022-08-18T02:33:00.284Z,19.70
2022-08-18T02:34:00.348Z,19.70
2022-08-18T02:35:00.760Z,19.70
2022-08-18T02:36:00.522Z,19.70
2022-08-18T02:37:00.407Z,19.70
2022-08-18T02:38:01.506Z,12.60
2022-08-18T02:39:00.350Z,12.60
2022-08-18T02:40:00.463Z,12.60
2022-08-18T02:41:02.346Z,12.60
2022-08-18T02:42:00.280Z,12.60
2022-08-18T02:43:05.237Z,12.60
2022-08-18T02:44:00.262Z,12.60
2022-08-18T02:45:00.309Z,12.60
2022-08-18T02:46:00.418Z,12.60
2022-08-18T02:47:00.552Z,12.60
2022-08-18T02:48:00.271Z,12.60
2022-08-18T02:49:00.664Z,12.60
2022-08-18T02:50:00.495Z,12.60
2022-08-18T02:51:01.559Z,12.60
2022-08-18T02:52:00.375Z,12.60
2022-08-18T02:53:01.195Z,12.60
2022-08-18T02:54:00.317Z,12.60
2022-08-18T02:55:00.947Z,12.60
2022-08-18T02:56:09.588Z,12.60
2022-08-18T02:57:04.942Z,12.60
2022-08-18T02:58:00.320Z,12.60
2022-08-18T02:59:03.004Z,12.60
2022-08-18T03:00:00.429Z,12.60
2022-08-18T03:01:00.331Z,12.60
2022-08-18T03:02:00.328Z,12.60
2022-08-18T03:03:00.442Z,12.60
2022-08-18T03:04:00.324Z,12.60
2022-08-18T03:05:00.275Z,12.60
2022-08-18T03:06:00.273Z,12.60
2022-08-18T03:07:02.442Z,12.60
2022-08-18T03:08:00.515Z,19.80
2022-08-18T03:09:00.370Z,19.80
2022-08-18T03:10:31.814Z,19.80
2022-08-18T03:11:00.311Z,19.80
2022-08-18T03:12:00.904Z,19.80
2022-08-18T03:13:00.560Z,19.80
2022-08-18T03:14:00.361Z,19.80
2022-08-18T03:15:00.293Z,19.80
2022-08-18T03:16:00.565Z,19.80
2022-08-18T03:17:03.013Z,19.80
2022-08-18T03:18:00.364Z,19.80
2022-08-18T03:19:00.830Z,19.80
2022-08-18T03:20:01.001Z,19.80
2022-08-18T03:21:04.401Z,19.80
2022-08-18T03:22:02.884Z,19.80
2022-08-18T03:23:05.889Z,19.80
2022-08-18T03:24:02.641Z,19.80
2022-08-18T03:25:00.279Z,19.80
2022-08-18T03:26:00.287Z,19.80
2022-08-18T03:27:02.922Z,19.80
2022-08-18T03:28:01.786Z,19.80
2022-08-18T03:29:00.629Z,19.80
2022-08-18T03:30:00.252Z,19.80
2022-08-18T03:31:00.261Z,19.80
2022-08-18T03:32:01.095Z,19.80
2022-08-18T03:33:00.291Z,19.80
2022-08-18T03:34:00.338Z,19.80
2022-08-18T03:35:00.281Z,19.80
2022-08-18T03:36:08.699Z,19.80
2022-08-18T03:37:00.470Z,19.80
2022-08-18T03:38:00.270Z,17.90
2022-08-18T03:39:04.128Z,17.90
2022-08-18T03:40:00.419Z,17.90
2022-08-18T03:41:00.292Z,17.90
2022-08-18T03:42:01.916Z,17.90
2022-08-18T03:43:02.457Z,17.90
2022-08-18T03:44:00.749Z,17.90
2022-08-18T03:45:00.264Z,17.90
2022-08-18T03:46:01.040Z,17.90
2022-08-18T03:47:00.691Z,17.90
2022-08-18T03:48:00.305Z,17.90
2022-08-18T03:49:00.494Z,17.90
2022-08-18T03:50:00.279Z,17.90
2022-08-18T03:51:05.270Z,17.90
2022-08-18T03:52:00.418Z,17.90
2022-08-18T03:53:00.263Z,17.90
2022-08-18T03:54:01.775Z,17.90
2022-08-18T03:55:00.281Z,17.90
2022-08-18T03:56:00.503Z,17.90
2022-08-18T03:57:00.442Z,17.90
2022-08-18T03:58:00.862Z,17.90
2022-08-18T03:59:02.752Z,17.90
2022-08-18T04:00:00.427Z,17.90
2022-08-18T04:01:00.323Z,17.90
2022-08-18T04:02:02.137Z,17.90
2022-08-18T04:03:01.469Z,17.90
2022-08-18T04:04:02.584Z,17.90
2022-08-18T04:05:00.282Z,17.90
2022-08-18T04:06:00.256Z,17.90
2022-08-18T04:07:01.807Z,17.90
2022-08-18T04:08:00.371Z,12.80
2022-08-18T04:09:01.665Z,12.80
2022-08-18T04:10:00.330Z,12.80
2022-08-18T04:11:00.273Z,12.80
2022-08-18T04:12:05.128Z,12.80
2022-08-18T04:13:00.566Z,12.80
2022-08-18T04:14:00.345Z,12.80
2022-08-18T04:15:00.264Z,12.80
2022-08-18T04:16:00.256Z,12.80
2022-08-18T04:17:00.296Z,12.80
2022-08-18T04:18:03.807Z,12.80
2022-08-18T04:19:00.492Z,12.80
2022-08-18T04:20:00.478Z,12.80
2022-08-18T04:21:01.367Z,12.80
2022-08-18T04:22:00.749Z,12.80
2022-08-18T04:23:00.568Z,12.80
2022-08-18T04:24:00.992Z,12.80
2022-08-18T04:25:00.265Z,12.80
2022-08-18T04:26:00.833Z,12.80
2022-08-18T04:27:01.624Z,12.80
2022-08-18T04:28:01.075Z,12.80
2022-08-18T04:29:00.390Z,12.80
2022-08-18T04:30:00.296Z,12.80
2022-08-18T04:31:05.722Z,12.80
2022-08-18T04:32:01.113Z,12.80
2022-08-18T04:33:00.416Z,12.80
2022-08-18T04:34:00.809Z,12.80
2022-08-18T04:35:02.842Z,12.80
2022-08-18T04:36:06.625Z,12.80
2022-08-18T04:37:00.376Z,12.80
2022-08-18T04:38:00.264Z,14.10
2022-08-18T04:39:01.421Z,14.10
2022-08-18T04:40:00.433Z,14.10
2022-08-18T04:41:00.397Z,14.10
2022-08-18T04:42:00.311Z,14.10
2022-08-18T04:43:00.267Z,14.10
2022-08-18T04:44:01.632Z,14.10
2022-08-18T04:45:00.303Z,14.10
2022-08-18T04:46:00.291Z,14.10
2022-08-18T04:47:00.894Z,14.10
2022-08-18T04:48:00.299Z,14.10
2022-08-18T04:49:00.312Z,14.10
2022-08-18T04:50:00.343Z,14.10
2022-08-18T04:51:04.292Z,14.10
2022-08-18T04:52:39.073Z,14.10
2022-08-18T04:53:00.336Z,14.10
2022-08-18T04:54:00.435Z,14.10
2022-08-18T04:55:01.094Z,14.10
2022-08-18T04:56:00.261Z,14.10
2022-08-18T04:57:05.085Z,14.10
2022-08-18T04:58:00.282Z,14.10
2022-08-18T04:59:02.757Z,14.10
2022-08-18T05:00:00.343Z,14.10
2022-08-18T05:01:00.715Z,14.10
2022-08-18T05:02:00.750Z,14.10
2022-08-18T05:03:00.281Z,14.10
2022-08-18T05:04:00.264Z,14.10
2022-08-18T05:05:00.301Z,14.10
2022-08-18T05:06:03.153Z,14.10
2022-08-18T05:07:00.282Z,14.10
2022-08-18T05:08:00.322Z,12.80
2022-08-18T05:09:02.813Z,12.80
2022-08-18T05:10:00.301Z,12.80
2022-08-18T05:11:03.876Z,12.80
2022-08-18T05:12:00.839Z,12.80
2022-08-18T05:13:00.274Z,12.80
2022-08-18T05:14:02.805Z,12.80
2022-08-18T05:15:00.267Z,12.80
2022-08-18T05:16:10.746Z,12.80
2022-08-18T05:17:01.259Z,12.80
2022-08-18T05:18:00.265Z,12.80
2022-08-18T05:19:00.801Z,12.80
2022-08-18T05:20:01.466Z,12.80
2022-08-18T05:21:00.255Z,12.80
2022-08-18T05:22:00.494Z,12.80
2022-08-18T05:23:00.268Z,12.80
2022-08-18T05:24:00.274Z,12.80
2022-08-18T05:25:00.615Z,12.80
2022-08-18T05:26:00.716Z,12.80
2022-08-18T05:27:00.822Z,12.80
2022-08-18T05:28:00.264Z,12.80
2022-08-18T05:29:17.715Z,12.80
2022-08-18T05:30:00.615Z,12.80
2022-08-18T05:31:05.826Z,12.80
2022-08-18T05:32:00.603Z,12.80
2022-08-18T05:33:00.268Z,12.80
2022-08-18T05:34:00.301Z,12.80
2022-08-18T05:35:02.806Z,12.80
2022-08-18T05:36:01.541Z,12.80
2022-08-18T05:37:05.133Z,12.80
2022-08-18T05:38:01.308Z,12.10
2022-08-18T05:39:01.273Z,12.10
2022-08-18T05:40:04.273Z,12.10
2022-08-18T05:41:13.740Z,12.10
2022-08-18T05:42:05.421Z,12.10
2022-08-18T05:43:00.728Z,12.10
2022-08-18T05:44:00.591Z,12.10
2022-08-18T05:45:02.011Z,12.10
2022-08-18T05:46:01.350Z,12.10
2022-08-18T05:47:04.526Z,12.10
2022-08-18T05:48:00.470Z,12.10
2022-08-18T05:49:00.324Z,12.10
2022-08-18T05:50:05.737Z,12.10
2022-08-18T05:51:03.879Z,12.10
2022-08-18T05:52:01.911Z,12.10
2022-08-18T05:53:03.047Z,12.10
2022-08-18T05:54:01.676Z,12.10
2022-08-18T05:55:10.209Z,12.10
2022-08-18T05:56:02.859Z,12.10
2022-08-18T05:57:03.074Z,12.10
2022-08-18T05:58:02.657Z,12.10
2022-08-18T05:59:00.633Z,12.10
2022-08-18T06:00:00.529Z,12.10
2022-08-18T06:01:02.671Z,12.10
2022-08-18T06:02:06.073Z,12.10
2022-08-18T06:03:05.579Z,12.10
2022-08-18T06:04:04.895Z,12.10
2022-08-18T06:05:10.185Z,12.10
2022-08-18T06:06:01.698Z,12.10
2022-08-18T06:07:03.208Z,12.10
2022-08-18T06:08:04.756Z,13.90
2022-08-18T06:09:09.586Z,13.90
2022-08-18T06:10:00.768Z,13.90
2022-08-18T06:11:00.302Z,13.90
2022-08-18T06:12:03.206Z,13.90
2022-08-18T06:13:01.250Z,13.90
2022-08-18T06:14:00.451Z,13.90
2022-08-18T06:15:10.177Z,13.90
2022-08-18T06:16:10.181Z,13.90
2022-08-18T06:17:10.176Z,13.90
2022-08-18T06:18:08.187Z,13.90
2022-08-18T06:19:10.164Z,13.90
2022-08-18T06:20:10.232Z,13.90
2022-08-18T06:21:10.187Z,13.90
2022-08-18T06:22:00.253Z,13.90
2022-08-18T06:23:10.168Z,13.90
2022-08-18T06:24:09.395Z,13.90
2022-08-18T06:25:10.170Z,13.90
2022-08-18T06:26:10.164Z,13.90
2022-08-18T06:27:07.282Z,13.90
2022-08-18T06:28:04.655Z,13.90
2022-08-18T06:29:10.301Z,13.90
2022-08-18T06:30:03.535Z,13.90
2022-08-18T06:31:06.439Z,13.90
2022-08-18T06:32:01.271Z,13.90
2022-08-18T06:33:10.201Z,13.90
2022-08-18T06:34:10.202Z,13.90
2022-08-18T06:35:10.226Z,13.90
2022-08-18T06:36:06.310Z,13.90
2022-08-18T06:37:06.001Z,13.90
2022-08-18T06:38:06.612Z,18.70
2022-08-18T06:39:04.552Z,18.70
2022-08-18T06:40:00.401Z,18.70
2022-08-18T06:41:02.069Z,18.70
2022-08-18T06:42:00.684Z,18.70
2022-08-18T06:43:02.062Z,18.70
2022-08-18T06:44:01.275Z,18.70
2022-08-18T06:45:01.542Z,18.70
2022-08-18T06:46:02.069Z,18.70
2022-08-18T06:47:07.986Z,18.70
2022-08-18T06:48:03.536Z,18.70
2022-08-18T06:49:02.692Z,18.70
2022-08-18T06:50:04.326Z,18.70
2022-08-18T06:51:02.033Z,18.70
2022-08-18T06:52:10.164Z,18.70
2022-08-18T06:53:03.068Z,18.70
2022-08-18T06:54:02.404Z,18.70
2022-08-18T06:55:03.152Z,18.70
2022-08-18T06:56:10.170Z,18.70
2022-08-18T06:57:00.254Z,18.70
2022-08-18T06:58:02.275Z,18.70
2022-08-18T06:59:10.183Z,18.70
2022-08-18T07:00:03.609Z,18.70
2022-08-18T07:01:04.112Z,18.70
2022-08-18T07:02:09.986Z,18.70
2022-08-18T07:03:04.779Z,18.70
2022-08-18T07:04:00.306Z,18.70
2022-08-18T07:05:02.268Z,18.70
2022-08-18T07:06:01.265Z,18.70
2022-08-18T07:07:10.171Z,18.70
2022-08-18T07:08:05.907Z,18.20
2022-08-18T07:09:10.166Z,18.20
2022-08-18T07:10:00.668Z,18.20
2022-08-18T07:11:10.169Z,18.20
2022-08-18T07:12:03.105Z,18.20
2022-08-18T07:13:10.215Z,18.20
2022-08-18T07:14:16.438Z,18.20
2022-08-18T07:15:01.471Z,18.20
2022-08-18T07:16:10.187Z,18.20
2022-08-18T07:17:08.778Z,18.20
2022-08-18T07:18:04.201Z,18.20
2022-08-18T07:19:08.252Z,18.20
2022-08-18T07:20:03.531Z,18.20
2022-08-18T07:21:00.799Z,18.20
2022-08-18T07:22:02.365Z,18.20
2022-08-18T07:23:02.475Z,18.20
2022-08-18T07:24:23.860Z,18.20
2022-08-18T07:25:05.310Z,18.20
2022-08-18T07:26:02.642Z,18.20
2022-08-18T07:27:03.637Z,18.20
2022-08-18T07:28:00.314Z,18.20
2022-08-18T07:29:10.164Z,18.20
2022-08-18T07:30:00.251Z,18.20
2022-08-18T07:31:17.070Z,18.20
2022-08-18T07:32:04.002Z,18.20
2022-08-18T07:33:00.259Z,18.20
2022-08-18T07:34:00.270Z,18.20
2022-08-18T07:35:01.698Z,18.20
2022-08-18T07:36:03.703Z,18.20
2022-08-18T07:37:02.942Z,18.20
2022-08-18T07:38:24.592Z,12.90
2022-08-18T07:39:04.985Z,12.90
2022-08-18T07:40:03.297Z,12.90
2022-08-18T07:41:04.665Z,12.90
2022-08-18T07:42:05.314Z,12.90
2022-08-18T07:43:04.331Z,12.90
2022-08-18T07:44:13.864Z,12.90
2022-08-18T07:45:03.764Z,12.90
2022-08-18T07:46:09.936Z,12.90
2022-08-18T07:47:05.643Z,12.90
2022-08-18T07:48:27.279Z,12.90
2022-08-18T07:49:00.945Z,12.90
2022-08-18T07:50:23.087Z,12.90
2022-08-18T07:51:08.602Z,12.90
2022-08-18T07:52:05.518Z,12.90
2022-08-18T07:53:10.166Z,12.90
2022-08-18T07:54:01.268Z,12.90
2022-08-18T07:55:09.954Z,12.90
2022-08-18T07:56:05.843Z,12.90
2022-08-18T07:57:10.181Z,12.90
2022-08-18T07:58:10.174Z,12.90
2022-08-18T07:59:00.248Z,12.90
2022-08-18T08:00:10.479Z,12.90
2022-08-18T08:01:01.342Z,12.90
2022-08-18T08:02:01.338Z,12.90
2022-08-18T08:03:10.168Z,12.90
2022-08-18T08:04:01.268Z,12.90
2022-08-18T08:05:01.266Z,12.90
2022-08-18T08:06:00.265Z,12.90
2022-08-18T08:07:23.891Z,12.90
2022-08-18T08:08:08.885Z,15.90
2022-08-18T08:09:10.183Z,15.90
2022-08-18T08:10:10.124Z,15.90
2022-08-18T08:11:01.239Z,15.90
2022-08-18T08:12:05.933Z,15.90
2022-08-18T08:13:10.159Z,15.90
2022-08-18T08:14:10.174Z,15.90
2022-08-18T08:15:10.195Z,15.90
2022-08-18T08:16:03.681Z,15.90
2022-08-18T08:17:00.252Z,15.90
2022-08-18T08:18:10.183Z,15.90
2022-08-18T08:19:12.372Z,15.90
2022-08-18T08:20:10.213Z,15.90
2022-08-18T08:21:03.720Z,15.90
2022-08-18T08:22:03.779Z,15.90
2022-08-18T08:23:10.164Z,15.90
2022-08-18T08:24:01.280Z,15.90
2022-08-18T08:25:22.725Z,15.90
2022-08-18T08:26:00.256Z,15.90
2022-08-18T08:27:10.166Z,15.90
2022-08-18T08:28:08.592Z,15.90
2022-08-18T08:29:01.284Z,15.90
2022-08-18T08:30:00.308Z,15.90
2022-08-18T08:31:33.358Z,15.90
2022-08-18T08:32:05.362Z,15.90
2022-08-18T08:33:06.423Z,15.90
2022-08-18T08:34:06.354Z,15.90
2022-08-18T08:35:06.932Z,15.90
2022-08-18T08:36:10.169Z,15.90
2022-08-18T08:37:02.342Z,15.90
2022-08-18T08:38:36.594Z,12.60
2022-08-18T08:39:00.309Z,12.60
2022-08-18T08:40:04.323Z,12.60
2022-08-18T08:41:02.296Z,12.60
2022-08-18T08:42:30.214Z,12.60
2022-08-18T08:43:03.285Z,12.60
2022-08-18T08:44:07.756Z,12.60
2022-08-18T08:45:05.334Z,12.60
2022-08-18T08:46:10.193Z,12.60
2022-08-18T08:47:06.078Z,12.60
2022-08-18T08:48:08.445Z,12.60
2022-08-18T08:49:05.050Z,12.60
2022-08-18T08:50:03.084Z,12.60
2022-08-18T08:51:03.592Z,12.60
2022-08-18T08:52:03.882Z,12.60
2022-08-18T08:53:10.173Z,12.60
2022-08-18T08:54:05.194Z,12.60
2022-08-18T08:55:04.483Z,12.60
2022-08-18T08:56:05.311Z,12.60
2022-08-18T08:57:00.429Z,12.60
2022-08-18T08:58:07.680Z,12.60
2022-08-18T08:59:04.499Z,12.60
2022-08-18T09:00:01.455Z,12.60
2022-08-18T09:01:00.443Z,12.60
2022-08-18T09:02:00.402Z,12.60
2022-08-18T09:03:10.168Z,12.60
2022-08-18T09:04:10.179Z,12.60
2022-08-18T09:05:09.443Z,12.60
2022-08-18T09:06:10.138Z,12.60
2022-08-18T09:07:07.938Z,12.60
2022-08-18T09:08:10.172Z,11.80
2022-08-18T09:09:01.265Z,11.80
2022-08-18T09:10:10.203Z,11.80
2022-08-18T09:11:10.194Z,11.80
2022-08-18T09:12:10.180Z,11.80
2022-08-18T09:13:10.175Z,11.80
2022-08-18T09:14:03.537Z,11.80
2022-08-18T09:15:07.981Z,11.80
2022-08-18T09:16:13.702Z,11.80
2022-08-18T09:17:10.195Z,11.80
2022-08-18T09:18:10.165Z,11.80
2022-08-18T09:19:07.715Z,11.80
2022-08-18T09:20:10.234Z,11.80
2022-08-18T09:21:08.103Z,11.80
2022-08-18T09:22:00.302Z,11.80
2022-08-18T09:23:10.169Z,11.80
2022-08-18T09:24:05.282Z,11.80
2022-08-18T09:25:00.911Z,11.80
2022-08-18T09:26:10.168Z,11.80
2022-08-18T09:27:01.280Z,11.80
2022-08-18T09:28:10.948Z,11.80
2022-08-18T09:29:10.184Z,11.80
2022-08-18T09:30:01.254Z,11.80
2022-08-18T09:31:01.282Z,11.80
2022-08-18T09:32:11.688Z,11.80
2022-08-18T09:33:18.552Z,11.80
2022-08-18T09:34:10.755Z,11.80
2022-08-18T09:35:00.273Z,11.80
2022-08-18T09:37:03.541Z,11.80
2022-08-18T09:38:10.181Z,10.60
2022-08-18T09:39:06.464Z,10.60
2022-08-18T09:40:10.863Z,10.60
2022-08-18T09:41:10.257Z,10.60
2022-08-18T09:42:03.432Z,10.60
2022-08-18T09:43:10.175Z,10.60
2022-08-18T09:44:03.522Z,10.60
2022-08-18T09:45:02.831Z,10.60
2022-08-18T09:47:00.604Z,10.60
2022-08-18T09:48:00.294Z,10.60
2022-08-18T09:49:10.172Z,10.60
2022-08-18T09:50:03.527Z,10.60
2022-08-18T09:50:38.104Z,10.60
2022-08-18T09:51:10.170Z,10.60
2022-08-18T09:52:10.162Z,10.60
2022-08-18T09:53:10.168Z,10.60
2022-08-18T09:54:09.483Z,10.60
2022-08-18T09:55:01.600Z,10.60
2022-08-18T09:56:05.041Z,10.60
2022-08-18T09:57:00.253Z,10.60
2022-08-18T09:58:10.163Z,10.60
2022-08-18T09:59:00.338Z,10.60
2022-08-18T10:00:03.593Z,10.60
2022-08-18T10:01:10.203Z,10.60
2022-08-18T10:03:02.131Z,10.60
2022-08-18T10:04:12.144Z,10.60
2022-08-18T10:05:10.223Z,10.60
2022-08-18T10:06:04.076Z,10.60
2022-08-18T10:07:10.166Z,10.60
2022-08-18T10:08:10.168Z,18.00
2022-08-18T10:10:03.535Z,18.00
2022-08-18T10:11:10.322Z,18.00
2022-08-18T10:12:10.188Z,18.00
2022-08-18T10:13:10.173Z,18.00
2022-08-18T10:14:10.168Z,18.00
2022-08-18T10:15:07.966Z,18.00
2022-08-18T10:16:11.328Z,18.00
2022-08-18T10:17:24.483Z,18.00
2022-08-18T10:18:10.181Z,18.00
2022-08-18T10:19:10.169Z,18.00
2022-08-18T10:20:25.812Z,18.00
2022-08-18T10:21:07.654Z,18.00
2022-08-18T10:22:02.156Z,18.00
2022-08-18T10:23:00.715Z,18.00
2022-08-18T10:24:32.278Z,18.00
2022-08-18T10:26:04.449Z,18.00
2022-08-18T10:27:02.355Z,18.00
2022-08-18T10:28:00.349Z,18.00
2022-08-18T10:29:03.425Z,18.00
2022-08-18T10:30:00.330Z,18.00
2022-08-18T10:31:06.442Z,18.00
2022-08-18T10:32:00.253Z,18.00
2022-08-18T10:33:10.735Z,18.00
2022-08-18T10:35:00.333Z,18.00
2022-08-18T10:36:00.327Z,18.00
2022-08-18T10:37:01.397Z,18.00
2022-08-18T10:38:04.952Z,15.00
2022-08-18T10:39:03.285Z,15.00
2022-08-18T10:40:02.588Z,15.00
2022-08-18T10:41:09.740Z,15.00
2022-08-18T10:42:03.610Z,15.00
2022-08-18T10:43:34.287Z,15.00
2022-08-18T10:44:01.272Z,15.00
2022-08-18T10:45:10.196Z,15.00
2022-08-18T10:46:24.957Z,15.00
2022-08-18T10:47:01.041Z,15.00
2022-08-18T10:48:03.531Z,15.00
2022-08-18T10:49:01.281Z,15.00
2022-08-18T10:50:03.550Z,15.00
2022-08-18T10:51:10.156Z,15.00
2022-08-18T10:52:01.124Z,15.00
2022-08-18T10:53:17.015Z,15.00
2022-08-18T10:54:10.184Z,15.00
2022-08-18T10:55:01.285Z,15.00
2022-08-18T10:56:01.190Z,15.00
2022-08-18T10:57:10.185Z,15.00
2022-08-18T10:58:00.264Z,15.00
2022-08-18T10:59:16.340Z,15.00
2022-08-18T11:00:07.989Z,15.00
2022-08-18T11:01:10.161Z,15.00
2022-08-18T11:02:10.160Z,15.00
2022-08-18T11:03:50.143Z,15.00
2022-08-18T11:04:27.509Z,15.00
2022-08-18T11:05:03.859Z,15.00
2022-08-18T11:06:03.320Z,15.00
2022-08-18T11:07:03.673Z,15.00
2022-08-18T11:08:02.624Z,13.10
2022-08-18T11:09:00.486Z,13.10
2022-08-18T11:10:28.306Z,13.10
2022-08-18T11:11:33.053Z,13.10
2022-08-18T11:12:02.484Z,13.10
2022-08-18T11:13:11.029Z,13.10
2022-08-18T11:14:06.161Z,13.10
2022-08-18T11:15:21.932Z,13.10
2022-08-18T11:16:00.262Z,13.10
2022-08-18T11:17:06.922Z,13.10
2022-08-18T11:18:06.338Z,13.10
2022-08-18T11:19:10.181Z,13.10
2022-08-18T11:20:01.566Z,13.10
2022-08-18T11:21:13.046Z,13.10
2022-08-18T11:22:00.359Z,13.10
2022-08-18T11:23:01.785Z,13.10
2022-08-18T11:24:01.295Z,13.10
2022-08-18T11:25:03.315Z,13.10
2022-08-18T11:26:10.161Z,13.10
2022-08-18T11:27:01.779Z,13.10
2022-08-18T11:28:00.642Z,13.10
2022-08-18T11:29:10.177Z,13.10
2022-08-18T11:30:01.062Z,13.10
2022-08-18T11:31:00.318Z,13.10
2022-08-18T11:32:04.410Z,13.10
2022-08-18T11:33:00.673Z,13.10
2022-08-18T11:34:00.288Z,13.10
2022-08-18T11:35:04.292Z,13.10
2022-08-18T11:36:01.448Z,13.10
2022-08-18T11:37:02.249Z,13.10
2022-08-18T11:38:03.421Z,14.00
2022-08-18T11:39:00.315Z,14.00
2022-08-18T11:40:02.096Z,14.00
2022-08-18T11:41:11.726Z,14.00
2022-08-18T11:42:00.344Z,14.00
2022-08-18T11:43:04.098Z,14.00
2022-08-18T11:44:00.280Z,14.00
2022-08-18T11:45:05.293Z,14.00
2022-08-18T11:46:09.278Z,14.00
2022-08-18T11:47:10.167Z,14.00
2022-08-18T11:48:00.327Z,14.00
2022-08-18T11:49:10.168Z,14.00
2022-08-18T11:50:10.147Z,14.00
2022-08-18T11:51:01.850Z,14.00
2022-08-18T11:52:02.252Z,14.00
2022-08-18T11:53:10.192Z,14.00
2022-08-18T11:54:10.167Z,14.00
2022-08-18T11:55:02.521Z,14.00
2022-08-18T11:57:10.314Z,14.00
2022-08-18T11:58:00.510Z,14.00
2022-08-18T11:59:03.882Z,14.00
2022-08-18T12:00:10.212Z,14.00
2022-08-18T12:01:01.577Z,14.00
2022-08-18T12:02:00.336Z,14.00
2022-08-18T12:03:01.671Z,14.00
2022-08-18T12:04:08.467Z,14.00
2022-08-18T12:05:03.407Z,14.00
2022-08-18T12:06:09.754Z,14.00
2022-08-18T12:07:04.595Z,14.00
2022-08-18T12:09:02.494Z,9.00
2022-08-18T12:10:16.870Z,9.00
2022-08-18T12:11:01.616Z,9.00
2022-08-18T12:12:10.185Z,9.00
2022-08-18T12:13:01.118Z,9.00
2022-08-18T12:14:29.786Z,9.00
2022-08-18T12:15:17.189Z,9.00
2022-08-18T12:16:10.173Z,9.00
2022-08-18T12:17:01.602Z,9.00
2022-08-18T12:18:00.843Z,9.00
2022-08-18T12:19:00.602Z,9.00
2022-08-18T12:20:00.266Z,9.00
2022-08-18T12:22:01.537Z,9.00
2022-08-18T12:23:00.295Z,9.00
2022-08-18T12:24:00.254Z,9.00
2022-08-18T12:25:00.919Z,9.00
2022-08-18T12:26:00.269Z,9.00
2022-08-18T12:27:00.887Z,9.00
2022-08-18T12:28:00.260Z,9.00
2022-08-18T12:29:01.390Z,9.00
2022-08-18T12:30:00.412Z,9.00
2022-08-18T12:31:00.265Z,9.00
2022-08-18T12:32:00.266Z,9.00
2022-08-18T12:33:05.527Z,9.00
2022-08-18T12:34:01.223Z,9.00
2022-08-18T12:36:01.464Z,9.00
2022-08-18T12:37:00.299Z,9.00
2022-08-18T12:38:08.261Z,10.60
2022-08-18T12:39:00.685Z,10.60
2022-08-18T12:40:00.537Z,10.60
2022-08-18T12:41:00.280Z,10.60
2022-08-18T12:42:00.339Z,10.60
2022-08-18T12:43:00.279Z,10.60
2022-08-18T12:44:00.264Z,10.60
2022-08-18T12:45:00.345Z,10.60
2022-08-18T12:46:00.282Z,10.60
2022-08-18T12:47:01.478Z,10.60
2022-08-18T12:48:00.312Z,10.60
2022-08-18T12:49:01.844Z,10.60
2022-08-18T12:50:01.222Z,10.60
2022-08-18T12:51:00.878Z,10.60
2022-08-18T12:52:00.272Z,10.60
2022-08-18T12:53:00.494Z,10.60
2022-08-18T12:54:00.458Z,10.60
2022-08-18T12:55:00.292Z,10.60
2022-08-18T12:56:00.345Z,10.60
2022-08-18T12:57:01.006Z,10.60
2022-08-18T12:58:00.775Z,10.60
2022-08-18T13:00:00.327Z,10.60
2022-08-18T13:01:00.305Z,10.60
2022-08-18T13:02:00.793Z,10.60
2022-08-18T13:03:00.319Z,10.60